sensor_id;sensor_type;location;lat;lon;timestamp;P1;P4;P2;P0;N10;N4;N25;N1;N05;TS
71641;SPS30;60657;50.122;14.468;2024-02-23T00:01:57;1.683;1.683;1.683;1.592;12.709;12.707;12.705;12.686;11.067;1.727
71641;SPS30;60657;50.122;14.468;2024-02-23T00:05:10;1.099;1.099;1.099;1.039;8.297;8.296;8.294;8.282;7.225;1.727
71641;SPS30;60657;50.122;14.468;2024-02-23T00:08:22;1.915;1.915;1.915;1.811;14.457;14.456;14.453;14.431;12.59;1.784
71641;SPS30;60657;50.122;14.468;2024-02-23T00:11:35;1.596;1.596;1.596;1.51;12.052;12.05;12.048;12.03;10.495;1.741
71641;SPS30;60657;50.122;14.468;2024-02-23T00:14:47;1.546;1.546;1.546;1.462;11.669;11.668;11.666;11.648;10.162;1.701
71641;SPS30;60657;50.122;14.468;2024-02-23T00:18:00;2.136;2.136;2.136;2.019;16.123;16.12;16.117;16.093;14.04;1.73
71641;SPS30;60657;50.122;14.468;2024-02-23T00:21:13;1.395;1.395;1.395;1.319;10.532;10.53;10.528;10.513;9.171;1.744
71641;SPS30;60657;50.122;14.468;2024-02-23T00:24:25;1.684;1.684;1.684;1.592;12.714;12.712;12.709;12.691;11.072;1.784
71641;SPS30;60657;50.122;14.468;2024-02-23T00:27:38;1.486;1.486;1.486;1.405;11.219;11.218;11.215;11.199;9.77;1.742
71641;SPS30;60657;50.122;14.468;2024-02-23T00:30:50;1.127;1.127;1.127;1.066;8.51;8.509;8.507;8.494;7.411;1.779
71641;SPS30;60657;50.122;14.468;2024-02-23T00:34:03;1.714;1.714;1.714;1.621;12.942;12.94;12.938;12.919;11.27;1.752
71641;SPS30;60657;50.122;14.468;2024-02-23T00:37:16;1.756;1.756;1.756;1.661;13.257;13.255;13.253;13.233;11.545;1.749
71641;SPS30;60657;50.122;14.468;2024-02-23T00:40:28;1.564;1.564;1.564;1.479;11.81;11.809;11.806;11.789;10.285;1.734
71641;SPS30;60657;50.122;14.468;2024-02-23T00:43:41;1.501;1.501;1.501;1.419;11.329;11.327;11.325;11.308;9.866;1.75
71641;SPS30;60657;50.122;14.468;2024-02-23T00:46:54;1.542;1.542;1.542;1.459;11.645;11.643;11.641;11.623;10.14;1.778
71641;SPS30;60657;50.122;14.468;2024-02-23T00:50:07;1.412;1.412;1.412;1.336;10.662;10.661;10.659;10.643;9.285;1.713
71641;SPS30;60657;50.122;14.468;2024-02-23T00:53:20;1.388;1.388;1.388;1.313;10.481;10.48;10.478;10.462;9.128;1.741
71641;SPS30;60657;50.122;14.468;2024-02-23T00:56:33;1.587;1.587;1.587;1.501;11.981;11.979;11.977;11.959;10.434;1.745
71641;SPS30;60657;50.122;14.468;2024-02-23T00:59:46;1.677;1.677;1.677;1.586;12.663;12.661;12.659;12.64;11.027;1.737
71641;SPS30;60657;50.122;14.468;2024-02-23T01:02:58;1.412;1.412;1.412;1.335;10.658;10.657;10.655;10.639;9.281;1.738
71641;SPS30;60657;50.122;14.468;2024-02-23T01:06:11;1.721;1.721;1.721;1.628;12.996;12.994;12.991;12.972;11.317;1.7
71641;SPS30;60657;50.122;14.468;2024-02-23T01:09:26;1.555;1.555;1.555;1.47;11.74;11.738;11.736;11.718;10.223;1.654
71641;SPS30;60657;50.122;14.468;2024-02-23T01:12:38;1.699;1.699;1.699;1.607;12.83;12.828;12.826;12.807;11.173;1.65
71641;SPS30;60657;50.122;14.468;2024-02-23T01:15:51;1.451;1.451;1.451;1.372;10.954;10.952;10.95;10.934;9.539;1.67
71641;SPS30;60657;50.122;14.468;2024-02-23T01:19:04;2.051;2.051;2.051;1.94;15.488;15.486;15.483;15.46;13.487;1.691
71641;SPS30;60657;50.122;14.468;2024-02-23T01:22:16;1.39;1.39;1.39;1.315;10.497;10.495;10.493;10.477;9.141;1.687
71641;SPS30;60657;50.122;14.468;2024-02-23T01:25:29;1.462;1.462;1.462;1.383;11.039;11.038;11.036;11.019;9.613;1.709
71641;SPS30;60657;50.122;14.468;2024-02-23T01:28:41;1.586;1.586;1.586;1.5;11.976;11.975;11.972;11.954;10.429;1.694
71641;SPS30;60657;50.122;14.468;2024-02-23T01:31:54;1.474;1.474;1.474;1.394;11.125;11.124;11.122;11.105;9.688;1.647
71641;SPS30;60657;50.122;14.468;2024-02-23T01:35:07;1.256;1.256;1.256;1.187;9.479;9.478;9.476;9.462;8.255;1.614
71641;SPS30;60657;50.122;14.468;2024-02-23T01:38:20;1.223;1.223;1.223;1.156;9.231;9.23;9.228;9.214;8.039;1.65
71641;SPS30;60657;50.122;14.468;2024-02-23T01:41:33;1.173;1.173;1.173;1.11;8.859;8.858;8.856;8.843;7.714;1.604
71641;SPS30;60657;50.122;14.468;2024-02-23T01:44:45;1.006;1.006;1.006;1.903;7.598;7.597;7.595;7.584;6.617;1.6
71641;SPS30;60657;50.122;14.468;2024-02-23T01:47:59;1.009;1.009;1.009;1.909;7.621;7.62;7.619;7.607;6.637;1.637
71641;SPS30;60657;50.122;14.468;2024-02-23T01:51:15;1.627;1.627;1.627;1.538;6.14;6.139;6.138;6.129;5.347;1.651
71641;SPS30;60657;50.122;14.468;2024-02-23T01:54:29;1.452;1.452;1.452;1.373;5.482;5.481;5.48;5.472;4.774;1.63
71641;SPS30;60657;50.122;14.468;2024-02-23T01:57:45;1.072;1.072;1.072;1.013;8.091;8.09;8.088;8.076;7.046;1.648
71641;SPS30;60657;50.122;14.468;2024-02-23T02:00:58;1.725;1.725;1.725;1.631;6.511;6.51;6.509;6.499;5.67;1.617
71641;SPS30;60657;50.122;14.468;2024-02-23T02:04:11;1.249;1.249;1.249;1.181;4.716;4.715;4.714;4.707;4.107;1.63
71641;SPS30;60657;50.122;14.468;2024-02-23T02:07:23;1.675;1.675;1.675;1.584;6.321;6.32;6.319;6.31;5.505;1.651
71641;SPS30;60657;50.122;14.468;2024-02-23T02:10:36;1.517;1.517;1.517;1.434;5.726;5.725;5.724;5.715;4.986;1.626
71641;SPS30;60657;50.122;14.468;2024-02-23T02:13:48;1.776;1.776;1.776;1.679;6.704;6.703;6.701;6.691;5.838;1.667
71641;SPS30;60657;50.122;14.468;2024-02-23T02:17:01;1.475;1.475;1.475;1.395;5.569;5.569;5.568;5.559;4.85;1.694
71641;SPS30;60657;50.122;14.468;2024-02-23T02:20:14;1.227;1.227;1.227;1.161;4.633;4.633;4.632;4.625;4.035;1.708
71641;SPS30;60657;50.122;14.468;2024-02-23T02:23:26;1.105;1.105;1.105;1.045;4.172;4.172;4.171;4.165;3.633;1.742
71641;SPS30;60657;50.122;14.468;2024-02-23T02:26:39;1.468;1.468;1.468;1.388;5.541;5.541;5.54;5.531;4.826;1.75
71641;SPS30;60657;50.122;14.468;2024-02-23T02:29:52;1.379;1.379;1.379;1.304;5.207;5.206;5.205;5.197;4.534;1.779
71641;SPS30;60657;50.122;14.468;2024-02-23T02:33:04;1.984;1.984;1.984;1.876;3.745;3.745;3.744;3.738;3.261;1.728
71641;SPS30;60657;50.122;14.468;2024-02-23T02:36:17;1.719;1.719;1.719;1.626;3.244;3.244;3.243;3.238;2.825;1.73
71641;SPS30;60657;50.122;14.468;2024-02-23T02:39:30;1.012;1.012;1.012;1.914;3.82;3.819;3.819;3.813;3.327;1.78
71641;SPS30;60657;50.122;14.468;2024-02-23T02:42:43;1.809;1.809;1.809;1.711;3.415;3.414;3.414;3.409;2.974;1.776
71641;SPS30;60657;50.122;14.468;2024-02-23T02:45:55;1.052;1.052;1.052;1.99;3.971;3.971;3.97;3.964;3.458;1.789
71641;SPS30;60657;50.122;14.468;2024-02-23T02:49:08;1.352;1.352;1.352;1.279;5.105;5.105;5.104;5.096;4.446;1.766
71641;SPS30;60657;50.122;14.468;2024-02-23T02:52:20;1.423;1.423;1.423;1.346;2.686;2.685;2.685;2.681;2.339;1.751
71641;SPS30;60657;50.122;14.468;2024-02-23T02:55:33;1.538;1.538;1.538;1.454;2.903;2.902;2.902;2.897;2.528;1.738
71641;SPS30;60657;50.122;14.468;2024-02-23T02:58:46;1.659;1.659;1.659;1.569;6.264;6.263;6.262;6.253;5.455;1.748
71641;SPS30;60657;50.122;14.468;2024-02-23T03:01:58;1.521;1.521;1.521;1.438;5.742;5.741;5.74;5.731;5.0;1.802
71641;SPS30;60657;50.122;14.468;2024-02-23T03:05:11;1.09;1.09;1.09;1.031;4.115;4.115;4.114;4.108;3.584;1.797
71641;SPS30;60657;50.122;14.468;2024-02-23T03:08:23;1.244;1.244;1.244;1.176;4.696;4.695;4.694;4.687;4.089;1.804
71641;SPS30;60657;50.122;14.468;2024-02-23T03:11:36;1.765;1.765;1.765;1.669;6.661;6.66;6.659;6.649;5.801;1.776
71641;SPS30;60657;50.122;14.468;2024-02-23T03:14:49;1.625;1.625;1.625;1.537;6.136;6.135;6.134;6.125;5.343;1.758
71641;SPS30;60657;50.122;14.468;2024-02-23T03:18:01;1.408;1.408;1.408;1.332;5.315;5.315;5.314;5.306;4.629;1.719
71641;SPS30;60657;50.122;14.468;2024-02-23T03:21:15;1.543;1.543;1.543;1.459;5.823;5.823;5.821;5.813;5.071;1.714
71641;SPS30;60657;50.122;14.468;2024-02-23T03:24:27;1.407;1.407;1.407;1.33;5.31;5.309;5.308;5.3;4.624;1.733
71641;SPS30;60657;50.122;14.468;2024-02-23T03:27:40;1.266;1.266;1.266;1.197;4.78;4.779;4.778;4.771;4.162;1.728
71641;SPS30;60657;50.122;14.468;2024-02-23T03:30:53;1.014;1.014;1.014;1.917;3.827;3.826;3.826;3.82;3.333;1.712
71641;SPS30;60657;50.122;14.468;2024-02-23T03:34:06;1.518;1.518;1.518;1.435;5.729;5.729;5.728;5.719;4.989;1.706
71641;SPS30;60657;50.122;14.468;2024-02-23T03:37:18;1.41;1.41;1.41;1.333;5.323;5.322;5.321;5.313;4.635;1.739
71641;SPS30;60657;50.122;14.468;2024-02-23T03:40:34;1.857;1.857;1.857;1.757;3.506;3.505;3.505;3.499;3.053;1.77
71641;SPS30;60657;50.122;14.468;2024-02-23T03:43:46;1.015;1.015;1.015;1.92;3.833;3.832;3.831;3.826;3.338;1.788
71641;SPS30;60657;50.122;14.468;2024-02-23T03:46:59;1.998;1.998;1.998;1.89;3.772;3.771;3.77;3.765;3.285;1.773
71641;SPS30;60657;50.122;14.468;2024-02-23T03:50:12;1.072;1.069;1.062;1.994;3.98;3.979;3.978;3.968;3.455;1.843
71641;SPS30;60657;50.122;14.468;2024-02-23T03:53:24;1.589;1.584;1.574;1.477;2.948;2.947;2.946;2.939;2.559;1.856
71641;SPS30;60657;50.122;14.468;2024-02-23T03:56:38;1.916;1.912;1.904;1.791;3.575;3.575;3.574;3.566;3.107;1.824
71641;SPS30;60657;50.122;14.468;2024-02-23T03:59:51;1.711;1.708;1.702;1.603;6.397;6.396;6.394;6.381;5.561;1.811
71641;SPS30;60657;50.122;14.468;2024-02-23T04:03:04;1.972;1.972;1.972;1.865;3.722;3.721;3.72;3.715;3.241;1.799
71641;SPS30;60657;50.122;14.468;2024-02-23T04:06:17;1.099;1.099;1.099;1.039;2.074;2.074;2.073;2.07;1.806;1.799
71641;SPS30;60657;50.122;14.468;2024-02-23T04:09:30;1.793;1.793;1.793;1.696;3.385;3.384;3.384;3.379;2.948;1.763
71641;SPS30;60657;50.122;14.468;2024-02-23T04:12:42;1.604;1.604;1.604;1.517;3.028;3.027;3.027;3.022;2.637;1.781
71641;SPS30;60657;50.122;14.468;2024-02-23T04:15:55;1.72;1.72;1.72;1.627;3.246;3.246;3.245;3.24;2.827;1.796
71641;SPS30;60657;50.122;14.468;2024-02-23T04:19:08;1.78;1.779;1.777;1.678;1.674;1.674;1.674;1.671;1.457;1.806
71641;SPS30;60657;50.122;14.468;2024-02-23T04:22:20;1.988;1.987;1.984;1.873;3.738;3.738;3.737;3.731;3.253;1.806
71641;SPS30;60657;50.122;14.468;2024-02-23T04:25:34;1.66;1.653;1.641;1.537;3.068;3.068;3.067;3.058;2.662;1.854
71641;SPS30;60657;50.122;14.468;2024-02-23T04:28:47;1.191;1.185;1.173;1.095;4.371;4.37;4.368;4.355;3.787;1.857
71641;SPS30;60657;50.122;14.468;2024-02-23T04:32:00;1.785;1.776;1.757;1.64;3.273;3.273;3.271;3.261;2.836;1.838
71641;SPS30;60657;50.122;14.468;2024-02-23T04:35:14;1.128;1.121;1.108;1.034;2.063;2.063;2.062;2.055;1.787;1.836
71641;SPS30;60657;50.122;14.468;2024-02-23T04:38:27;1.073;1.065;1.049;1.947;3.886;3.885;3.883;3.868;3.359;1.84
71641;SPS30;60657;50.122;14.468;2024-02-23T04:41:39;1.88;1.867;1.843;1.715;3.422;3.421;3.42;3.407;2.961;1.825
71641;SPS30;60657;50.122;14.468;2024-02-23T04:44:52;1.832;1.82;1.797;1.672;3.338;3.337;3.336;3.324;2.889;1.816
71641;SPS30;60657;50.122;14.468;2024-02-23T04:48:05;1.312;1.302;1.282;1.19;2.374;2.374;2.373;2.363;2.052;1.84
71641;SPS30;60657;50.122;14.468;2024-02-23T04:51:18;1.761;1.743;1.71;1.578;1.575;1.575;1.574;1.566;1.358;1.901
71641;SPS30;60657;50.122;14.468;2024-02-23T04:54:31;1.839;1.822;1.79;1.656;3.304;3.304;3.302;3.288;2.852;1.913
71641;SPS30;60657;50.122;14.468;2024-02-23T04:57:43;1.637;1.626;1.602;1.488;5.94;5.939;5.936;5.914;5.136;1.923
71641;SPS30;60657;50.122;14.468;2024-02-23T05:00:56;1.413;1.404;1.384;1.287;2.569;2.569;2.568;2.558;2.222;1.926
71641;SPS30;60657;50.122;14.468;2024-02-23T05:04:09;1.001;1.989;1.964;1.828;3.649;3.648;3.646;3.633;3.158;1.954
71641;SPS30;60657;50.122;14.468;2024-02-23T05:07:22;1.228;1.22;1.205;1.122;2.238;2.238;2.237;2.229;1.937;1.954
71641;SPS30;60657;50.122;14.468;2024-02-23T05:10:34;1.141;1.133;1.116;1.035;4.133;4.133;4.131;4.114;3.573;1.984
71641;SPS30;60657;50.122;14.468;2024-02-23T05:13:47;1.058;1.051;1.038;1.932;3.857;3.856;3.854;3.841;3.338;1.949
71641;SPS30;60657;50.122;14.468;2024-02-23T05:17:00;1.809;1.798;1.776;1.655;3.303;3.302;3.301;3.289;2.859;1.977
71641;SPS30;60657;50.122;14.468;2024-02-23T05:20:14;1.787;1.775;1.753;1.632;3.256;3.256;3.254;3.243;2.818;1.972
71641;SPS30;60657;50.122;14.468;2024-02-23T05:23:27;1.71;1.699;1.678;1.562;6.233;6.232;6.23;6.207;5.394;1.953
71641;SPS30;60657;50.122;14.468;2024-02-23T05:26:39;1.127;1.122;1.111;1.039;8.296;8.294;8.291;8.267;7.192;1.931
71641;SPS30;60657;50.122;14.468;2024-02-23T05:29:53;1.342;1.335;1.321;1.233;4.921;4.921;4.919;4.903;4.264;1.949
71641;SPS30;60657;50.122;14.468;2024-02-23T05:33:07;1.558;1.551;1.536;1.436;5.73;5.73;5.727;5.71;4.967;1.902
71641;SPS30;60657;50.122;14.468;2024-02-23T05:36:20;1.982;1.973;1.955;1.827;3.647;3.647;3.645;3.635;3.162;1.927
71641;SPS30;60657;50.122;14.468;2024-02-23T05:39:32;1.193;1.185;1.169;1.088;4.344;4.343;4.341;4.326;3.759;1.953
71641;SPS30;60657;50.122;14.468;2024-02-23T05:42:45;1.042;1.037;1.026;1.917;7.653;7.652;7.649;7.625;6.632;1.923
71641;SPS30;60657;50.122;14.468;2024-02-23T05:45:58;1.401;1.393;1.378;1.286;5.135;5.134;5.132;5.115;4.448;1.916
71641;SPS30;60657;50.122;14.468;2024-02-23T05:49:11;1.526;1.515;1.493;1.386;11.068;11.066;11.061;11.018;9.569;1.968
71641;SPS30;60657;50.122;14.468;2024-02-23T05:52:25;1.738;1.723;1.693;1.567;6.255;6.254;6.251;6.224;5.401;1.006
71641;SPS30;60657;50.122;14.468;2024-02-23T05:55:38;1.756;1.736;1.697;1.56;6.225;6.224;6.22;6.187;5.359;1.036
71641;SPS30;60657;50.122;14.468;2024-02-23T05:58:51;1.366;1.35;1.319;1.212;4.837;4.836;4.833;4.807;4.164;1.028
71641;SPS30;60657;50.122;14.468;2024-02-23T06:02:04;1.486;1.468;1.432;1.313;2.62;2.619;2.617;2.603;2.253;1.029
71641;SPS30;60657;50.122;14.468;2024-02-23T06:05:18;1.239;1.225;1.196;1.099;4.388;4.387;4.384;4.361;3.777;1.039
71641;SPS30;60657;50.122;14.468;2024-02-23T06:08:30;1.681;1.661;1.622;1.488;2.971;2.97;2.968;2.952;2.556;1.047
71641;SPS30;60657;50.122;14.468;2024-02-23T06:11:43;1.562;1.54;1.494;1.362;2.717;2.717;2.715;2.697;2.331;1.057
71641;SPS30;60657;50.122;14.468;2024-02-23T06:14:56;1.207;1.19;1.155;1.053;8.41;8.408;8.401;8.348;7.216;1.058
71641;SPS30;60657;50.122;14.468;2024-02-23T06:18:08;1.996;1.974;1.93;1.775;7.086;7.084;7.08;7.043;6.102;1.053
71641;SPS30;60657;50.122;14.468;2024-02-23T06:21:21;1.063;1.051;1.028;1.892;7.551;7.549;7.544;7.506;6.503;1.049
71641;SPS30;60657;50.122;14.468;2024-02-23T06:24:34;1.288;1.273;1.244;1.143;9.122;9.12;9.114;9.066;7.852;1.068
71641;SPS30;60657;50.122;14.468;2024-02-23T06:27:46;1.377;1.356;1.314;1.195;4.77;4.769;4.765;4.734;4.089;1.094
71641;SPS30;60657;50.122;14.468;2024-02-23T06:30:59;1.594;1.569;1.519;1.379;5.503;5.502;5.497;5.459;4.714;1.106
71641;SPS30;60657;50.122;14.468;2024-02-23T06:34:12;1.343;1.319;1.273;1.151;4.596;4.595;4.59;4.556;3.93;1.118
71641;SPS30;60657;50.122;14.468;2024-02-23T06:37:25;1.616;1.587;1.53;1.382;5.515;5.513;5.508;5.466;4.713;1.123
71641;SPS30;60657;50.122;14.468;2024-02-23T06:40:37;1.012;1.992;1.93;1.754;7.002;7.001;6.995;6.948;6.001;1.089
71641;SPS30;60657;50.122;14.468;2024-02-23T06:43:50;1.344;1.327;1.294;1.185;9.458;9.456;9.45;9.396;8.132;1.056
71641;SPS30;60657;50.122;14.468;2024-02-23T06:47:03;1.116;1.103;1.077;1.976;7.889;7.887;7.882;7.839;6.788;1.055
71641;SPS30;60657;50.122;14.468;2024-02-23T06:50:16;1.482;1.465;1.431;1.315;10.501;10.499;10.492;10.436;9.04;1.037
71641;SPS30;60657;50.122;14.468;2024-02-23T06:53:29;1.364;1.348;1.316;1.208;4.821;4.82;4.817;4.791;4.148;1.031
71641;SPS30;60657;50.122;14.468;2024-02-23T06:56:41;1.448;1.431;1.398;1.285;5.129;5.128;5.124;5.097;4.415;1.988
71641;SPS30;60657;50.122;14.468;2024-02-23T06:59:54;1.152;1.138;1.109;1.016;8.108;8.106;8.101;8.055;6.971;1.013
71641;SPS30;60657;50.122;14.468;2024-02-23T07:03:07;1.753;1.722;1.661;1.502;5.995;5.993;5.987;5.943;5.126;1.064
71641;SPS30;60657;50.122;14.468;2024-02-23T07:06:20;1.791;1.765;1.713;1.56;6.229;6.227;6.222;6.183;5.343;1.035
71641;SPS30;60657;50.122;14.468;2024-02-23T07:09:33;1.028;1.012;1.961;1.783;7.116;7.114;7.108;7.061;6.099;1.04
71641;SPS30;60657;50.122;14.468;2024-02-23T07:12:46;1.571;1.548;1.501;1.367;5.455;5.454;5.45;5.414;4.678;1.036
71641;SPS30;60657;50.122;14.468;2024-02-23T07:16:00;1.016;1.001;1.944;1.771;7.068;7.066;7.061;7.015;6.063;1.044
71641;SPS30;60657;50.122;14.468;2024-02-23T07:19:15;1.105;1.088;1.056;1.922;7.67;7.668;7.662;7.612;6.577;1.047
71641;SPS30;60657;50.122;14.468;2024-02-23T07:22:28;1.304;1.287;1.254;1.147;9.16;9.158;9.152;9.099;7.872;1.035
71641;SPS30;60657;50.122;14.468;2024-02-23T07:25:41;1.682;1.661;1.62;1.486;11.862;11.86;11.851;11.786;10.203;1.035
71641;SPS30;60657;50.122;14.468;2024-02-23T07:28:54;1.981;1.942;1.865;1.675;6.686;6.685;6.678;6.622;5.702;1.078
71641;SPS30;60657;50.122;14.468;2024-02-23T07:32:06;1.809;1.774;1.706;1.535;6.128;6.127;6.12;6.071;5.23;1.072
71641;SPS30;60657;50.122;14.468;2024-02-23T07:35:19;1.173;1.148;1.099;1.968;7.854;7.852;7.844;7.774;6.687;1.096
71641;SPS30;60657;50.122;14.468;2024-02-23T07:38:32;1.88;1.84;1.759;1.572;6.276;6.274;6.267;6.21;5.34;1.062
71641;SPS30;60657;50.122;14.468;2024-02-23T07:41:45;1.943;1.907;1.835;1.653;6.598;6.597;6.59;6.538;5.634;1.037
71641;SPS30;60657;50.122;14.468;2024-02-23T07:44:58;1.231;1.203;1.148;1.022;8.159;8.156;8.147;8.069;6.932;1.062
71641;SPS30;60657;50.122;14.468;2024-02-23T07:48:11;1.579;1.539;1.46;1.291;5.152;5.151;5.144;5.09;4.363;1.066
71641;SPS30;60657;50.122;14.468;2024-02-23T07:51:24;1.239;1.211;1.157;1.032;8.237;8.235;8.225;8.149;7.003;1.048
71641;SPS30;60657;50.122;14.468;2024-02-23T07:54:37;1.689;1.656;1.59;1.428;5.699;5.697;5.691;5.644;4.859;1.057
71641;SPS30;60657;50.122;14.468;2024-02-23T07:57:50;1.061;1.043;1.007;1.82;7.265;7.264;7.257;7.203;6.213;1.054
71641;SPS30;60657;50.122;14.468;2024-02-23T08:01:03;1.85;1.822;1.767;1.608;6.417;6.416;6.41;6.368;5.502;1.019
71641;SPS30;60657;50.122;14.468;2024-02-23T08:04:16;1.218;1.199;1.161;1.054;8.418;8.416;8.409;8.352;7.212;1.018
71641;SPS30;60657;50.122;14.468;2024-02-23T08:07:29;1.881;1.85;1.791;1.625;6.488;6.487;6.481;6.436;5.557;1.016
71641;SPS30;60657;50.122;14.468;2024-02-23T08:10:42;1.264;1.238;1.187;1.065;4.25;4.249;4.244;4.208;3.622;1.059
71641;SPS30;60657;50.122;14.468;2024-02-23T08:13:54;1.291;1.269;1.225;1.108;8.842;8.84;8.832;8.767;7.562;1.04
71641;SPS30;60657;50.122;14.468;2024-02-23T08:17:07;1.025;1.003;1.921;1.72;6.865;6.863;6.856;6.796;5.846;1.054
71641;SPS30;60657;50.122;14.468;2024-02-23T08:20:20;1.586;1.557;1.499;1.351;5.394;5.392;5.387;5.345;4.607;1.023
71641;SPS30;60657;50.122;14.468;2024-02-23T08:23:33;1.416;1.39;1.337;1.205;9.617;9.614;9.605;9.529;8.211;1.032
71641;SPS30;60657;50.122;14.468;2024-02-23T08:26:46;1.359;1.329;1.27;1.134;9.053;9.05;9.04;8.957;7.7;1.065
71641;SPS30;60657;50.122;14.468;2024-02-23T08:29:58;1.247;1.225;1.181;1.067;8.515;8.513;8.505;8.441;7.278;1.067
71641;SPS30;60657;50.122;14.468;2024-02-23T08:33:11;1.19;1.163;1.112;1.984;7.92;7.918;7.909;7.836;6.736;1.099
71641;SPS30;60657;50.122;14.468;2024-02-23T08:36:24;1.831;1.789;1.706;1.518;6.059;6.058;6.05;5.992;5.147;1.093
71641;SPS30;60657;50.122;14.468;2024-02-23T08:39:37;1.923;1.875;1.781;1.576;12.582;12.578;12.562;12.431;10.661;1.069
71641;SPS30;60657;50.122;14.468;2024-02-23T08:42:50;1.109;1.078;1.018;1.786;7.13;7.128;7.118;7.036;6.02;1.095
71641;SPS30;60657;50.122;14.468;2024-02-23T08:46:03;1.386;1.352;1.286;1.14;9.103;9.1;9.089;8.997;7.72;1.104
71641;SPS30;60657;50.122;14.468;2024-02-23T08:49:17;1.247;1.218;1.16;1.031;8.233;8.231;8.221;8.141;6.99;1.085
71641;SPS30;60657;50.122;14.468;2024-02-23T08:52:30;1.886;1.838;1.746;1.544;12.329;12.326;12.309;12.182;10.446;1.076
71641;SPS30;60657;50.122;14.468;2024-02-23T08:55:43;2.045;2.008;1.936;1.747;13.948;13.945;13.932;13.825;11.919;1.032
71641;SPS30;60657;50.122;14.468;2024-02-23T08:58:57;1.878;1.852;1.801;1.646;13.139;13.136;13.126;13.047;11.284;1.029
71641;SPS30;60657;50.122;14.468;2024-02-23T09:02:10;1.301;1.284;1.249;1.141;9.11;9.108;9.101;9.046;7.824;1.024
71641;SPS30;60657;50.122;14.468;2024-02-23T09:05:23;2.138;2.101;2.03;1.837;14.666;14.663;14.649;14.543;12.547;1.044
71641;SPS30;60657;50.122;14.468;2024-02-23T09:08:36;1.323;1.301;1.256;1.137;9.079;9.077;9.068;9.003;7.767;1.017
71641;SPS30;60657;50.122;14.468;2024-02-23T09:11:49;1.402;1.377;1.329;1.2;9.583;9.58;9.571;9.499;8.192;1.05
71641;SPS30;60657;50.122;14.468;2024-02-23T09:15:03;1.316;1.286;1.228;1.095;8.742;8.739;8.729;8.648;7.431;1.077
71641;SPS30;60657;50.122;14.468;2024-02-23T09:18:18;1.295;1.265;1.207;1.074;8.578;8.575;8.565;8.483;7.287;1.066
71641;SPS30;60657;50.122;14.468;2024-02-23T09:21:30;1.742;1.703;1.625;1.448;11.559;11.556;11.542;11.433;9.823;1.048
71641;SPS30;60657;50.122;14.468;2024-02-23T09:24:43;1.276;1.251;1.201;1.079;8.617;8.615;8.606;8.535;7.349;1.049
71641;SPS30;60657;50.122;14.468;2024-02-23T09:27:57;1.384;1.352;1.288;1.145;9.145;9.142;9.131;9.042;7.765;1.077
71641;SPS30;60657;50.122;14.468;2024-02-23T09:31:10;1.532;1.494;1.418;1.255;10.018;10.015;10.002;9.898;8.489;1.074
71641;SPS30;60657;50.122;14.468;2024-02-23T09:34:23;1.03;1.006;1.917;1.704;6.803;6.801;6.793;6.727;5.777;1.082
71641;SPS30;60657;50.122;14.468;2024-02-23T09:37:36;1.774;1.727;1.635;1.44;11.495;11.492;11.476;11.35;9.722;1.121
71641;SPS30;60657;50.122;14.468;2024-02-23T09:40:49;1.551;1.504;1.414;1.233;9.841;9.838;9.822;9.701;8.286;1.14
71641;SPS30;60657;50.122;14.468;2024-02-23T09:44:02;2.147;2.075;1.933;1.666;13.296;13.292;13.268;13.081;11.136;1.116
71641;SPS30;60657;50.122;14.468;2024-02-23T09:47:16;1.29;1.253;1.179;1.03;8.222;8.219;8.206;8.107;6.928;1.104
71641;SPS30;60657;50.122;14.468;2024-02-23T09:50:30;1.63;1.582;1.487;1.297;10.351;10.348;10.332;10.204;8.716;1.123
71641;SPS30;60657;50.122;14.468;2024-02-23T09:53:49;1.408;1.36;1.265;1.088;8.689;8.686;8.67;8.546;7.271;1.156
71641;SPS30;60657;50.122;14.468;2024-02-23T09:57:06;1.593;1.535;1.42;1.212;9.678;9.675;9.656;9.506;8.071;1.201
71641;SPS30;60657;50.122;14.468;2024-02-23T10:00:20;2.191;2.111;1.954;1.668;13.315;13.311;13.285;13.079;11.104;1.202
71641;SPS30;60657;50.122;14.468;2024-02-23T10:03:35;1.366;1.317;1.22;1.044;8.334;8.331;8.315;8.189;6.956;1.207
71641;SPS30;60657;50.122;14.468;2024-02-23T10:06:49;1.275;1.232;1.148;1.977;7.89;7.887;7.873;7.761;6.606;1.18
71641;SPS30;60657;50.122;14.468;2024-02-23T10:10:06;1.51;1.466;1.38;1.207;9.636;9.633;9.618;9.503;8.123;1.126
71641;SPS30;60657;50.122;14.468;2024-02-23T10:13:19;1.96;1.904;1.792;1.567;12.507;12.503;12.484;12.333;10.542;1.14
71641;SPS30;60657;50.122;14.468;2024-02-23T10:16:32;1.863;1.793;1.656;1.408;11.244;11.24;11.217;11.038;9.362;1.189
71641;SPS30;60657;50.122;14.468;2024-02-23T10:19:45;1.354;1.305;1.207;1.03;8.221;8.218;8.202;8.075;6.854;1.151
71641;SPS30;60657;50.122;14.468;2024-02-23T10:22:58;1.444;1.397;1.305;1.129;9.015;9.012;8.996;8.874;7.563;1.126
71641;SPS30;60657;50.122;14.468;2024-02-23T10:26:11;2.236;2.176;2.06;1.814;14.484;14.479;14.459;14.3;12.248;1.098
71641;SPS30;60657;50.122;14.468;2024-02-23T10:29:25;1.639;1.605;1.537;1.375;10.976;10.973;10.961;10.864;9.345;1.075
71641;SPS30;60657;50.122;14.468;2024-02-23T10:32:39;1.454;1.415;1.339;1.179;9.408;9.406;9.393;9.288;7.954;1.127
71641;SPS30;60657;50.122;14.468;2024-02-23T10:35:56;1.61;1.572;1.496;1.328;10.6;10.597;10.583;10.478;8.993;1.122
71641;SPS30;60657;50.122;14.468;2024-02-23T10:39:09;1.253;1.216;1.142;1.99;7.945;7.943;7.93;7.831;6.688;1.156
71641;SPS30;60657;50.122;14.468;2024-02-23T10:42:24;1.401;1.362;1.285;1.128;9.001;8.999;8.985;8.881;7.598;1.131
71641;SPS30;60657;50.122;14.468;2024-02-23T10:45:44;1.706;1.658;1.565;1.373;10.958;10.954;10.938;10.812;9.25;1.112
71641;SPS30;60657;50.122;14.468;2024-02-23T10:48:59;1.76;1.706;1.599;1.391;11.103;11.099;11.081;10.939;9.336;1.114
71641;SPS30;60657;50.122;14.468;2024-02-23T10:52:15;1.101;1.072;1.013;1.782;7.115;7.113;7.102;7.023;6.013;1.09
71641;SPS30;60657;50.122;14.468;2024-02-23T10:55:31;1.638;1.591;1.497;1.308;10.441;10.438;10.422;10.296;8.799;1.124
71641;SPS30;60657;50.122;14.468;2024-02-23T10:58:45;1.611;1.562;1.465;1.275;10.177;10.174;10.157;10.028;8.56;1.143
71641;SPS30;60657;50.122;14.468;2024-02-23T11:01:59;1.804;1.757;1.664;1.468;11.717;11.714;11.698;11.571;9.915;1.093
71641;SPS30;60657;50.122;14.468;2024-02-23T11:05:16;2.57;2.507;2.385;2.114;16.88;16.876;16.854;16.684;14.316;1.104
71641;SPS30;60657;50.122;14.468;2024-02-23T11:08:29;1.503;1.468;1.399;1.244;9.93;9.927;9.915;9.818;8.431;1.092
71641;SPS30;60657;50.122;14.468;2024-02-23T11:11:52;1.914;1.874;1.794;1.606;12.818;12.814;12.8;12.687;10.913;1.084
71641;SPS30;60657;50.122;14.468;2024-02-23T11:15:05;1.828;1.778;1.681;1.478;11.796;11.792;11.775;11.643;9.967;1.149
71641;SPS30;60657;50.122;14.468;2024-02-23T11:18:22;2.024;1.977;1.885;1.677;13.384;13.38;13.364;13.235;11.366;1.085
71641;SPS30;60657;50.122;14.468;2024-02-23T11:21:35;1.947;1.9;1.806;1.601;12.779;12.776;12.759;12.63;10.836;1.115
71641;SPS30;60657;50.122;14.468;2024-02-23T11:24:49;1.752;1.713;1.636;1.46;11.653;11.65;11.637;11.529;9.909;1.073